createdAt,value
2023-01-28T00:02:01.714Z,10.10
2023-01-28T00:04:37.102Z,10.10
2023-01-28T00:09:56.079Z,10.10
2023-01-28T00:12:29.741Z,10.00
2023-01-28T00:15:06.125Z,10.00
2023-01-28T00:17:41.419Z,10.00
2023-01-28T00:20:16.556Z,10.00
2023-01-28T00:22:55.735Z,10.10
2023-01-28T00:25:29.874Z,10.00
2023-01-28T00:28:05.873Z,10.10
2023-01-28T00:30:40.993Z,10.10
2023-01-28T00:33:16.911Z,10.10
2023-01-28T00:35:52.826Z,10.10
2023-01-28T00:38:26.544Z,10.10
2023-01-28T00:40:56.250Z,10.10
2023-01-28T00:43:30.066Z,10.10
2023-01-28T00:46:06.260Z,10.10
2023-01-28T00:48:41.880Z,10.00
2023-01-28T00:51:17.430Z,10.00
2023-01-28T00:53:57.645Z,10.00
2023-01-28T00:56:34.152Z,10.00
2023-01-28T00:59:09.561Z,10.00
2023-01-28T01:01:46.535Z,10.00
2023-01-28T01:04:27.148Z,10.00
2023-01-28T01:06:57.777Z,10.00
2023-01-28T01:09:31.629Z,10.00
2023-01-28T01:12:05.824Z,10.00
2023-01-28T01:14:41.903Z,9.90
2023-01-28T01:17:17.059Z,9.90
2023-01-28T01:19:53.210Z,9.90
2023-01-28T01:22:34.516Z,10.00
2023-01-28T01:25:09.507Z,9.90
2023-01-28T01:27:44.394Z,9.90
2023-01-28T01:30:18.772Z,9.90
2023-01-28T01:33:02.711Z,9.90
2023-01-28T01:35:35.770Z,9.80
2023-01-28T01:38:11.774Z,9.80
2023-01-28T01:40:45.636Z,9.80
2023-01-28T01:43:22.835Z,9.80
2023-01-28T01:46:01.907Z,9.80
2023-01-28T01:48:38.041Z,9.70
2023-01-28T01:51:22.247Z,9.70
2023-01-28T01:53:55.698Z,9.70
2023-01-28T01:56:33.776Z,9.80
2023-01-28T01:59:05.925Z,9.80
2023-01-28T02:01:41.929Z,9.80
2023-01-28T02:04:42.733Z,9.80
2023-01-28T02:07:21.237Z,9.80
2023-01-28T02:09:56.516Z,9.80
2023-01-28T02:12:39.051Z,9.80
2023-01-28T02:15:30.886Z,9.80
2023-01-28T02:18:01.922Z,9.80
2023-01-28T02:21:01.256Z,9.80
2023-01-28T02:23:53.721Z,9.90
2023-01-28T02:26:44.734Z,9.90
2023-01-28T02:29:21.613Z,9.90
2023-01-28T02:31:58.853Z,9.80
2023-01-28T02:34:34.756Z,9.80
2023-01-28T02:37:16.673Z,9.80
2023-01-28T02:39:49.691Z,9.80
2023-01-28T02:42:51.890Z,9.80
2023-01-28T02:45:46.852Z,9.90
2023-01-28T02:48:17.868Z,9.90
2023-01-28T02:51:03.932Z,9.80
2023-01-28T02:53:57.753Z,9.90
2023-01-28T02:56:50.822Z,9.90
2023-01-28T02:59:34.686Z,9.90
2023-01-28T03:02:29.443Z,9.80
2023-01-28T03:05:18.670Z,9.80
2023-01-28T03:07:57.187Z,9.80
2023-01-28T03:10:37.565Z,9.80
2023-01-28T03:13:24.855Z,9.80
2023-01-28T03:16:15.001Z,9.80
2023-01-28T03:19:11.533Z,9.80
2023-01-28T03:22:03.130Z,9.90
2023-01-28T03:24:57.759Z,9.90
2023-01-28T03:27:54.323Z,9.90
2023-01-28T03:30:51.435Z,9.90
2023-01-28T03:33:50.203Z,10.00
2023-01-28T03:36:43.140Z,10.00
2023-01-28T03:39:32.590Z,10.00
2023-01-28T03:42:05.922Z,10.00
2023-01-28T03:44:56.749Z,10.10
2023-01-28T03:47:29.710Z,10.10
2023-01-28T03:50:02.449Z,10.10
2023-01-28T03:52:48.713Z,10.10
2023-01-28T03:55:39.039Z,10.10
2023-01-28T03:58:09.437Z,10.20
2023-01-28T04:00:42.710Z,10.20
2023-01-28T04:03:18.533Z,10.30
2023-01-28T04:06:02.845Z,10.30
2023-01-28T04:08:55.423Z,10.40
2023-01-28T04:11:57.659Z,10.40
2023-01-28T04:14:42.029Z,10.40
2023-01-28T04:17:26.414Z,10.40
2023-01-28T04:19:58.201Z,10.40
2023-01-28T04:22:33.991Z,10.40
2023-01-28T04:25:08.910Z,10.40
2023-01-28T04:27:43.120Z,10.50
2023-01-28T04:30:28.296Z,10.50
2023-01-28T04:33:21.189Z,10.50
2023-01-28T04:35:58.087Z,10.50
2023-01-28T04:38:45.795Z,10.50
2023-01-28T04:41:36.814Z,10.60
2023-01-28T04:44:33.004Z,10.60
2023-01-28T04:47:26.226Z,10.60
2023-01-28T04:50:20.588Z,10.60
2023-01-28T04:53:15.640Z,10.60
2023-01-28T04:56:05.396Z,10.60
2023-01-28T04:58:39.586Z,10.70
2023-01-28T05:01:21.935Z,10.70
2023-01-28T05:03:53.502Z,10.70
2023-01-28T05:06:29.821Z,10.70
2023-01-28T05:09:06.567Z,10.80
2023-01-28T05:11:41.852Z,10.70
2023-01-28T05:14:22.077Z,10.80
2023-01-28T05:17:05.909Z,10.80
2023-01-28T05:19:41.161Z,10.80
2023-01-28T05:22:28.601Z,10.80
2023-01-28T05:25:29.589Z,10.80
2023-01-28T05:28:01.633Z,10.80
2023-01-28T05:30:35.484Z,10.80
2023-01-28T05:33:05.507Z,10.80
2023-01-28T05:35:45.406Z,10.80
2023-01-28T05:38:21.847Z,10.70
2023-01-28T05:40:54.300Z,10.70
2023-01-28T05:43:26.738Z,10.80
2023-01-28T05:46:18.387Z,10.80
2023-01-28T05:49:11.180Z,10.80
2023-01-28T05:52:02.561Z,10.90
2023-01-28T05:54:37.795Z,11.00
2023-01-28T05:57:13.994Z,11.10
2023-01-28T05:59:49.530Z,11.10
2023-01-28T06:02:25.248Z,11.20
2023-01-28T06:05:02.300Z,11.20
2023-01-28T06:07:35.218Z,11.20
2023-01-28T06:10:05.407Z,11.30
2023-01-28T06:12:45.440Z,11.30
2023-01-28T06:15:37.977Z,11.30
2023-01-28T06:18:25.938Z,11.30
2023-01-28T06:20:59.144Z,11.40
2023-01-28T06:23:31.327Z,11.40
2023-01-28T06:26:01.418Z,11.30
2023-01-28T06:28:40.871Z,11.40
2023-01-28T06:31:17.772Z,11.40
2023-01-28T06:33:53.773Z,11.30
2023-01-28T06:36:29.895Z,11.40
2023-01-28T06:39:03.218Z,11.30
2023-01-28T06:41:35.107Z,11.30
2023-01-28T06:44:07.332Z,11.20
2023-01-28T06:46:37.087Z,11.20
2023-01-28T06:49:12.715Z,11.20
2023-01-28T06:51:46.816Z,11.20
2023-01-28T06:54:19.828Z,11.20
2023-01-28T06:56:59.923Z,11.20
2023-01-28T06:59:38.216Z,11.20
2023-01-28T07:02:13.507Z,11.20
2023-01-28T07:04:46.918Z,11.30
2023-01-28T07:07:17.952Z,11.30
2023-01-28T07:09:52.520Z,11.30
2023-01-28T07:12:25.992Z,11.20
2023-01-28T07:15:01.353Z,11.30
2023-01-28T07:17:33.648Z,11.30
2023-01-28T07:20:08.467Z,11.30
2023-01-28T07:22:50.605Z,11.30
2023-01-28T07:25:26.194Z,11.30
2023-01-28T07:27:59.377Z,11.40
2023-01-28T07:30:36.314Z,11.40
2023-01-28T07:33:09.765Z,11.40
2023-01-28T07:35:46.046Z,11.40
2023-01-28T07:38:19.409Z,11.50
2023-01-28T07:40:51.402Z,11.50
2023-01-28T07:43:22.654Z,11.50
2023-01-28T07:45:54.352Z,11.50
2023-01-28T07:48:27.479Z,11.50
2023-01-28T07:50:59.791Z,11.60
2023-01-28T07:53:36.788Z,11.60
2023-01-28T07:56:13.044Z,11.60
2023-01-28T07:58:45.499Z,11.60
2023-01-28T08:01:21.322Z,11.60
2023-01-28T08:03:57.432Z,11.60
2023-01-28T08:06:29.873Z,11.60
2023-01-28T08:08:59.061Z,11.70
2023-01-28T08:11:30.444Z,11.60
2023-01-28T08:14:05.823Z,11.60
2023-01-28T08:16:34.953Z,11.60
2023-01-28T08:19:04.457Z,11.50
2023-01-28T08:21:33.526Z,11.60
2023-01-28T08:24:07.956Z,11.60
2023-01-28T08:26:38.702Z,11.60
2023-01-28T08:29:07.559Z,11.70
2023-01-28T08:31:39.256Z,11.70
2023-01-28T08:34:08.304Z,11.80
2023-01-28T08:36:37.156Z,11.70
2023-01-28T08:39:07.395Z,11.80
2023-01-28T08:41:36.243Z,11.80
2023-01-28T08:44:06.686Z,11.80
2023-01-28T08:46:35.653Z,11.80
2023-01-28T08:49:05.613Z,11.80
2023-01-28T08:51:35.470Z,11.80
2023-01-28T08:54:05.020Z,11.80
2023-01-28T08:56:34.252Z,11.80
2023-01-28T08:59:03.106Z,11.80
2023-01-28T09:01:32.270Z,11.90
2023-01-28T09:04:01.682Z,11.90
2023-01-28T09:06:31.725Z,11.90
2023-01-28T09:09:01.400Z,11.90
2023-01-28T09:11:30.740Z,12.00
2023-01-28T09:14:00.245Z,12.00
2023-01-28T09:16:29.794Z,12.00
2023-01-28T09:18:59.354Z,12.00
2023-01-28T09:21:29.617Z,12.00
2023-01-28T09:23:59.002Z,12.00
2023-01-28T09:26:28.088Z,12.10
2023-01-28T09:28:56.978Z,12.10
2023-01-28T09:31:26.685Z,12.10
2023-01-28T09:33:57.903Z,12.20
2023-01-28T09:36:27.581Z,12.10
2023-01-28T09:38:56.905Z,12.20
2023-01-28T09:41:30.735Z,12.30
2023-01-28T09:44:12.018Z,12.40
2023-01-28T09:46:43.564Z,12.40
2023-01-28T09:49:43.080Z,12.50
2023-01-28T09:52:17.337Z,12.50
2023-01-28T09:54:59.539Z,12.50
2023-01-28T09:57:52.462Z,12.50
2023-01-28T10:00:38.272Z,12.50
2023-01-28T10:03:26.701Z,12.50
2023-01-28T10:06:11.406Z,12.60
2023-01-28T10:08:59.375Z,12.60
2023-01-28T10:11:34.898Z,12.60
2023-01-28T10:14:28.550Z,12.60
2023-01-28T10:17:06.944Z,12.60
2023-01-28T10:19:42.681Z,12.60
2023-01-28T10:22:20.313Z,12.60
2023-01-28T10:24:55.921Z,12.60
2023-01-28T10:27:30.379Z,12.50
2023-01-28T10:30:01.151Z,12.50
2023-01-28T10:32:37.978Z,12.50
2023-01-28T10:35:07.756Z,12.40
2023-01-28T10:37:37.881Z,12.40
2023-01-28T10:40:08.049Z,12.40
2023-01-28T10:42:38.026Z,12.40
2023-01-28T10:45:10.442Z,12.40
2023-01-28T10:47:51.415Z,12.40
2023-01-28T10:50:25.991Z,12.40
2023-01-28T10:53:03.491Z,12.40
2023-01-28T10:55:55.961Z,12.40
2023-01-28T10:58:33.234Z,12.40
2023-01-28T11:01:03.947Z,12.40
2023-01-28T11:03:33.238Z,12.40
2023-01-28T11:06:02.524Z,12.30
2023-01-28T11:08:32.753Z,12.30
2023-01-28T11:11:01.931Z,12.30
2023-01-28T11:13:31.683Z,12.30
2023-01-28T11:16:05.059Z,12.30
2023-01-28T11:18:42.135Z,12.30
2023-01-28T11:21:21.560Z,12.40
2023-01-28T11:23:59.337Z,12.30
2023-01-28T11:26:33.536Z,12.30
2023-01-28T11:29:02.542Z,12.30
2023-01-28T11:31:32.007Z,12.30
2023-01-28T11:34:01.889Z,12.40
2023-01-28T11:36:32.386Z,12.30
2023-01-28T11:39:30.704Z,12.30
2023-01-28T11:42:26.185Z,12.30
2023-01-28T11:44:55.240Z,12.30
2023-01-28T11:47:34.964Z,12.30
2023-01-28T11:50:23.949Z,12.40
2023-01-28T11:53:17.018Z,12.30
2023-01-28T11:56:07.815Z,12.30
2023-01-28T11:58:47.844Z,12.30
2023-01-28T12:01:30.285Z,12.30
2023-01-28T12:04:10.030Z,12.30
2023-01-28T12:07:06.956Z,12.30
2023-01-28T12:09:51.755Z,12.30
2023-01-28T12:12:36.025Z,12.30
2023-01-28T12:15:32.011Z,12.30
2023-01-28T12:18:04.852Z,12.30
2023-01-28T12:20:46.414Z,12.30
2023-01-28T12:23:24.781Z,12.30
2023-01-28T12:26:31.586Z,12.30
2023-01-28T12:29:16.913Z,12.30
2023-01-28T12:31:58.628Z,12.40
2023-01-28T12:34:46.138Z,12.30
2023-01-28T12:37:26.629Z,12.30
2023-01-28T12:40:07.586Z,12.30
2023-01-28T12:42:40.897Z,12.30
2023-01-28T12:45:34.465Z,12.40
2023-01-28T12:48:18.942Z,12.30
2023-01-28T12:51:31.515Z,12.30
2023-01-28T12:54:34.309Z,12.40
2023-01-28T12:57:06.101Z,12.30
2023-01-28T12:59:47.333Z,12.30
2023-01-28T13:02:25.495Z,12.30
2023-01-28T13:05:23.894Z,12.40
2023-01-28T13:08:16.283Z,12.30
2023-01-28T13:10:57.034Z,12.30
2023-01-28T13:13:37.941Z,12.40
2023-01-28T13:16:09.545Z,12.40
2023-01-28T13:18:46.969Z,12.40
2023-01-28T13:21:27.945Z,12.40
2023-01-28T13:24:07.459Z,12.30
2023-01-28T13:26:42.417Z,12.30
2023-01-28T13:29:28.463Z,12.30
2023-01-28T13:31:59.553Z,12.30
2023-01-28T13:34:34.430Z,12.30
2023-01-28T13:37:40.869Z,12.30
2023-01-28T13:40:22.263Z,12.30
2023-01-28T13:43:03.350Z,12.30
2023-01-28T13:45:35.431Z,12.30
2023-01-28T13:48:22.168Z,12.30
2023-01-28T13:50:51.322Z,12.30
2023-01-28T13:53:50.101Z,12.30
2023-01-28T13:56:37.861Z,12.20
2023-01-28T13:59:33.571Z,12.20
2023-01-28T14:02:21.579Z,12.20
2023-01-28T14:05:03.149Z,12.20
2023-01-28T14:07:32.291Z,12.20
2023-01-28T14:10:27.449Z,12.20
2023-01-28T14:13:06.001Z,12.20
2023-01-28T14:15:48.514Z,12.20
2023-01-28T14:18:27.724Z,12.20
2023-01-28T14:21:04.233Z,12.20
2023-01-28T14:23:38.200Z,12.20
2023-01-28T14:26:13.973Z,12.20
2023-01-28T14:29:03.270Z,12.20
2023-01-28T14:31:38.076Z,12.20
2023-01-28T14:34:28.345Z,12.20
2023-01-28T14:37:11.458Z,12.20
2023-01-28T14:39:54.178Z,12.20
2023-01-28T14:42:30.269Z,12.10
2023-01-28T14:45:08.787Z,12.10
2023-01-28T14:47:45.539Z,12.10
2023-01-28T14:50:47.674Z,12.10
2023-01-28T14:53:33.684Z,12.20
2023-01-28T14:56:21.613Z,12.10
2023-01-28T14:58:58.531Z,12.10
2023-01-28T15:01:36.270Z,12.10
2023-01-28T15:04:32.517Z,12.10
2023-01-28T15:07:35.778Z,12.00
2023-01-28T15:10:33.734Z,12.10
2023-01-28T15:13:15.199Z,12.00
2023-01-28T15:15:53.904Z,12.00
2023-01-28T15:18:37.271Z,12.10
2023-01-28T15:21:16.647Z,12.10
2023-01-28T15:23:52.505Z,12.00
2023-01-28T15:26:26.887Z,12.00
2023-01-28T15:28:59.926Z,12.00
2023-01-28T15:31:31.470Z,12.00
2023-01-28T15:34:08.998Z,12.00
2023-01-28T15:36:42.226Z,12.00
2023-01-28T15:39:25.679Z,12.00
2023-01-28T15:42:05.858Z,11.90
2023-01-28T15:44:49.921Z,12.00
2023-01-28T15:47:33.107Z,11.90
2023-01-28T15:50:13.646Z,11.90
2023-01-28T15:52:45.941Z,11.90
2023-01-28T15:55:32.389Z,11.90
2023-01-28T15:58:14.407Z,11.90
2023-01-28T16:00:50.641Z,11.90
2023-01-28T16:03:21.556Z,11.90
2023-01-28T16:06:09.219Z,11.90
2023-01-28T16:08:41.962Z,11.90
2023-01-28T16:11:16.894Z,11.90
2023-01-28T16:13:46.085Z,11.80
2023-01-28T16:16:21.027Z,11.80
2023-01-28T16:18:58.124Z,11.80
2023-01-28T16:21:48.977Z,11.80
2023-01-28T16:24:26.911Z,11.80
2023-01-28T16:27:01.051Z,11.80
2023-01-28T16:29:43.426Z,11.80
2023-01-28T16:32:38.220Z,11.70
2023-01-28T16:35:18.639Z,11.70
2023-01-28T16:37:48.782Z,11.70
2023-01-28T16:40:20.344Z,11.70
2023-01-28T16:42:56.502Z,11.70
2023-01-28T16:45:28.986Z,11.70
2023-01-28T16:48:05.494Z,11.70
2023-01-28T16:50:41.402Z,11.70
2023-01-28T16:53:36.084Z,11.70
2023-01-28T16:56:19.746Z,11.70
2023-01-28T16:59:02.347Z,11.70
2023-01-28T17:01:38.557Z,11.70
2023-01-28T17:04:12.256Z,11.70
2023-01-28T17:06:49.726Z,11.70
2023-01-28T17:09:19.356Z,11.70
2023-01-28T17:11:48.453Z,11.70
2023-01-28T17:14:17.466Z,11.70
2023-01-28T17:16:50.121Z,11.70
2023-01-28T17:19:19.632Z,11.70
2023-01-28T17:21:56.006Z,11.70
2023-01-28T17:24:32.321Z,11.70
2023-01-28T17:27:07.460Z,11.60
2023-01-28T17:29:39.468Z,11.60
2023-01-28T17:32:10.137Z,11.70
2023-01-28T17:34:45.022Z,11.60
2023-01-28T17:37:17.705Z,11.60
2023-01-28T17:39:58.974Z,11.60
2023-01-28T17:42:28.711Z,11.60
2023-01-28T17:45:04.368Z,11.60
2023-01-28T17:47:46.086Z,11.50
2023-01-28T17:50:22.338Z,11.60
2023-01-28T17:52:58.120Z,11.50
2023-01-28T17:55:33.624Z,11.50
2023-01-28T17:58:03.389Z,11.50
2023-01-28T18:00:33.943Z,11.50
2023-01-28T18:03:10.063Z,11.50
2023-01-28T18:05:51.093Z,11.50
2023-01-28T18:08:27.654Z,11.40
2023-01-28T18:11:00.137Z,11.40
2023-01-28T18:13:38.305Z,11.50
2023-01-28T18:16:11.335Z,11.40
2023-01-28T18:18:43.571Z,11.40
2023-01-28T18:21:20.652Z,11.40
2023-01-28T18:23:57.840Z,11.40
2023-01-28T18:26:27.283Z,11.40
2023-01-28T18:28:58.916Z,11.40
2023-01-28T18:31:31.476Z,11.40
2023-01-28T18:34:05.964Z,11.40
2023-01-28T18:36:35.239Z,11.40
2023-01-28T18:39:04.147Z,11.40
2023-01-28T18:41:34.219Z,11.40
2023-01-28T18:44:09.118Z,11.40
2023-01-28T18:46:38.554Z,11.40
2023-01-28T18:49:13.224Z,11.40
2023-01-28T18:51:44.843Z,11.30
2023-01-28T18:54:17.969Z,11.30
2023-01-28T18:56:47.635Z,11.30
2023-01-28T18:59:18.168Z,11.40
2023-01-28T19:01:50.411Z,11.40
2023-01-28T19:04:20.311Z,11.30
2023-01-28T19:06:56.500Z,11.30
2023-01-28T19:09:25.753Z,11.40
2023-01-28T19:12:06.687Z,11.40
2023-01-28T19:14:41.279Z,11.30
2023-01-28T19:17:14.536Z,11.40
2023-01-28T19:19:43.741Z,11.30
2023-01-28T19:22:12.996Z,11.30
2023-01-28T19:24:46.738Z,11.30
2023-01-28T19:27:16.311Z,11.30
2023-01-28T19:29:46.003Z,11.30
2023-01-28T19:32:18.105Z,11.20
2023-01-28T19:34:53.187Z,11.30
2023-01-28T19:37:33.745Z,11.30
2023-01-28T19:40:18.947Z,11.20
2023-01-28T19:42:52.053Z,11.20
2023-01-28T19:45:22.335Z,11.30
2023-01-28T19:47:56.158Z,11.20
2023-01-28T19:50:37.946Z,11.20
2023-01-28T19:53:10.900Z,11.20
2023-01-28T19:55:40.448Z,11.20
2023-01-28T19:58:16.426Z,11.20
2023-01-28T20:00:49.758Z,11.20
2023-01-28T20:03:19.683Z,11.20
2023-01-28T20:05:48.623Z,11.20
2023-01-28T20:08:17.669Z,11.20
2023-01-28T20:10:57.155Z,11.10
2023-01-28T20:13:29.804Z,11.20
2023-01-28T20:16:04.425Z,11.20
2023-01-28T20:18:37.387Z,11.10
2023-01-28T20:21:10.169Z,11.10
2023-01-28T20:23:45.797Z,11.10
2023-01-28T20:26:20.075Z,11.10
2023-01-28T20:28:52.143Z,11.10
2023-01-28T20:31:24.115Z,11.10
2023-01-28T20:33:53.913Z,11.10
2023-01-28T20:36:35.045Z,11.10
2023-01-28T20:39:13.443Z,11.10
2023-01-28T20:41:53.151Z,11.10
2023-01-28T20:44:33.022Z,11.00
2023-01-28T20:47:06.797Z,11.00
2023-01-28T20:49:42.245Z,11.00
2023-01-28T20:52:14.400Z,11.00
2023-01-28T20:54:44.234Z,11.00
2023-01-28T20:57:13.900Z,11.00
2023-01-28T20:59:45.891Z,11.00
2023-01-28T21:02:21.856Z,10.90
2023-01-28T21:05:03.104Z,11.00
2023-01-28T21:07:37.891Z,11.00
2023-01-28T21:10:13.788Z,10.90
2023-01-28T21:12:53.538Z,11.00
2023-01-28T21:15:30.440Z,11.00
2023-01-28T21:18:05.068Z,11.00
2023-01-28T21:20:39.130Z,11.00
2023-01-28T21:23:14.156Z,11.00
2023-01-28T21:25:49.498Z,11.00
2023-01-28T21:28:19.430Z,11.00
2023-01-28T21:30:50.042Z,11.00
2023-01-28T21:33:19.583Z,10.90
2023-01-28T21:35:50.047Z,11.00
2023-01-28T21:38:19.688Z,11.00
2023-01-28T21:40:50.269Z,10.90
2023-01-28T21:43:19.659Z,11.00
2023-01-28T21:46:01.698Z,10.90
2023-01-28T21:48:37.616Z,10.90
2023-01-28T21:51:27.469Z,10.90
2023-01-28T21:54:05.478Z,10.80
2023-01-28T21:56:49.001Z,10.80
2023-01-28T21:59:31.386Z,10.80
2023-01-28T22:02:02.600Z,10.90
2023-01-28T22:04:42.147Z,10.90
2023-01-28T22:07:13.918Z,10.90
2023-01-28T22:09:45.753Z,10.80
2023-01-28T22:12:20.275Z,10.80
2023-01-28T22:14:50.804Z,10.80
2023-01-28T22:17:20.364Z,10.80
2023-01-28T22:19:52.726Z,10.80
2023-01-28T22:22:21.907Z,10.80
2023-01-28T22:24:57.755Z,10.80
2023-01-28T22:27:30.149Z,10.80
2023-01-28T22:30:05.722Z,10.80
2023-01-28T22:32:41.465Z,10.80
2023-01-28T22:35:13.241Z,10.80
2023-01-28T22:37:47.015Z,10.80
2023-01-28T22:40:19.677Z,10.80
2023-01-28T22:42:50.251Z,10.80
2023-01-28T22:45:19.757Z,10.80
2023-01-28T22:47:50.867Z,10.70
2023-01-28T22:50:20.822Z,10.80
2023-01-28T22:52:54.399Z,10.80
2023-01-28T22:55:26.504Z,10.80
2023-01-28T22:58:00.888Z,10.70
2023-01-28T23:00:34.701Z,10.80
2023-01-28T23:03:08.652Z,10.70
2023-01-28T23:05:45.216Z,10.70
2023-01-28T23:08:18.685Z,10.70
2023-01-28T23:10:50.889Z,10.70
2023-01-28T23:13:21.556Z,10.70
2023-01-28T23:16:11.386Z,10.70
2023-01-28T23:19:04.045Z,10.70
2023-01-28T23:21:53.691Z,10.60
2023-01-28T23:24:33.211Z,10.70
2023-01-28T23:27:05.271Z,10.70
2023-01-28T23:29:46.610Z,10.70
2023-01-28T23:32:19.016Z,10.70
2023-01-28T23:34:52.039Z,10.70
2023-01-28T23:37:21.714Z,10.70
2023-01-28T23:39:58.351Z,10.60
2023-01-28T23:42:33.875Z,10.60
2023-01-28T23:45:09.386Z,10.60
2023-01-28T23:47:42.223Z,10.60
2023-01-28T23:50:18.193Z,10.60
2023-01-28T23:52:47.513Z,10.60
2023-01-28T23:55:19.770Z,10.60
2023-01-28T23:57:51.814Z,10.60
